Time;durP1;ratioP1;P1;durP2;ratioP2;P2;SDS_P1;SDS_P2;PMS_P1;PMS_P2;Temp;Humidity;BMP_temperature;BMP_pressure;BME280_temperature;BME280_humidity;BME280_pressure;Samples;Min_cycle;Max_cycle;Signal;HPM_P1;HPM_P2
2022/06/12 00:00:48;;;;;;;;;;;;;;;23.48;39.94;101467.53;2091427;28;846;-55
2022/06/12 00:01:48;;;;;;;;;;;;;;;23.48;39.52;101468.44;2091420;28;827;-55
2022/06/12 00:02:48;;;;;;;;;;;;;;;23.49;39.94;101474.72;2091418;28;1039;-55
2022/06/12 00:03:49;;;;;;;;;;;;;;;23.48;39.81;101465.72;2091383;28;972;-55
2022/06/12 00:04:49;;;;;;;;;;;;;;;23.46;39.54;101464.91;2091351;28;1091;-55
2022/06/12 00:05:52;;;;;;;;;;;;;;;23.47;40.13;101466.66;2091407;28;802;-55
2022/06/12 00:06:53;;;;;;;;;;;;;;;23.44;40.49;101465.88;2091344;28;942;-55
2022/06/12 00:07:53;;;;;;;;;;;;;;;23.43;39.81;101469.53;2090319;28;1902;-55
2022/06/12 00:08:55;;;;;;;;;;;;;;;23.39;40.53;101474.16;2091218;28;1059;-55
2022/06/12 00:09:55;;;;;;;;;;;;;;;23.39;40.51;101466.06;2091302;28;850;-55
2022/06/12 00:10:57;;;;;;;;;;;;;;;23.37;40.59;101468.78;2091377;28;1104;-55
2022/06/12 00:11:57;;;;;;;;;;;;;;;23.36;40.58;101471.56;2091183;28;841;-55
2022/06/12 00:12:57;;;;;;;;;;;;;;;23.33;40.49;101469.84;2091326;28;878;-55
2022/06/12 00:14:00;;;;;;;;;;;;;;;23.34;41.09;101468.03;2091272;28;783;-55
2022/06/12 00:15:00;;;;;;;;;;;;;;;23.34;40.22;101471.59;2091260;28;973;-55
2022/06/12 00:16:00;;;;;;;;;;;;;;;23.33;40.85;101471.69;2091265;28;913;-55
2022/06/12 00:17:01;;;;;;;;;;;;;;;23.31;40.40;101466.31;2091252;28;1080;-55
2022/06/12 00:18:01;;;;;;;;;;;;;;;23.32;40.68;101464.50;2091299;28;1030;-55
2022/06/12 00:19:02;;;;;;;;;;;;;;;23.30;41.31;101467.25;2091293;28;789;-55
2022/06/12 00:20:02;;;;;;;;;;;;;;;23.30;41.22;101461.84;2091220;28;1004;-55
2022/06/12 00:21:12;;;;;;;;;;;;;;;23.30;41.41;101460.97;2091297;28;919;-55
2022/06/12 00:22:12;;;;;;;;;;;;;;;23.28;40.69;101461.00;2091264;28;814;-55
2022/06/12 00:23:13;;;;;;;;;;;;;;;23.28;41.65;101465.53;2091098;28;896;-55
2022/06/12 00:24:16;;;;;;;;;;;;;;;23.28;41.55;101460.13;2107661;28;881;-55
2022/06/12 00:25:18;;;;;;;;;;;;;;;23.28;40.96;101462.84;2117184;28;836;-55
2022/06/12 00:26:20;;;;;;;;;;;;;;;23.27;40.92;101466.47;2117107;28;774;-55
2022/06/12 00:27:22;;;;;;;;;;;;;;;23.27;40.96;101463.78;2117034;28;1189;-54
2022/06/12 00:28:22;;;;;;;;;;;;;;;23.26;41.36;101465.59;2117101;28;1977;-55
2022/06/12 00:29:23;;;;;;;;;;;;;;;23.27;41.70;101466.47;2117161;28;774;-55
2022/06/12 00:30:25;;;;;;;;;;;;;;;23.26;41.81;101462.00;2117137;28;1055;-55
2022/06/12 00:31:25;;;;;;;;;;;;;;;23.24;41.59;101460.25;2117114;28;881;-55
2022/06/12 00:32:28;;;;;;;;;;;;;;;23.24;41.50;101460.25;2117139;28;909;-56
2022/06/12 00:33:28;;;;;;;;;;;;;;;23.23;42.13;101463.88;2117126;28;825;-55
2022/06/12 00:34:31;;;;;;;;;;;;;;;23.23;42.12;101458.47;2117102;28;853;-55
2022/06/12 00:35:33;;;;;;;;;;;;;;;23.22;41.29;101467.53;2117072;28;1917;-55
2022/06/12 00:36:33;;;;;;;;;;;;;;;23.22;42.18;101459.41;2117137;28;991;-55
2022/06/12 00:37:34;;;;;;;;;;;;;;;23.22;41.30;101466.63;2117003;28;1202;-55
2022/06/12 00:38:34;;;;;;;;;;;;;;;23.21;41.70;101460.31;2116950;28;1549;-55
2022/06/12 00:39:34;;;;;;;;;;;;;;;23.20;41.75;101458.56;2117065;28;730;-55
2022/06/12 00:40:35;;;;;;;;;;;;;;;23.21;42.28;101462.16;2117032;28;784;-55
2022/06/12 00:41:36;;;;;;;;;;;;;;;23.20;42.14;101469.38;2117014;28;1039;-55
2022/06/12 00:42:39;;;;;;;;;;;;;;;23.20;42.21;101463.97;2117001;28;1270;-55
2022/06/12 00:43:39;;;;;;;;;;;;;;;23.19;42.37;101459.50;2116971;28;977;-55
2022/06/12 00:44:41;;;;;;;;;;;;;;;23.18;42.45;101460.44;2117123;28;869;-55
2022/06/12 00:45:52;;;;;;;;;;;;;;;23.18;42.52;101460.44;2117074;28;1009;-55
2022/06/12 00:46:54;;;;;;;;;;;;;;;23.19;41.72;101462.19;2117001;28;782;-55
2022/06/12 00:47:55;;;;;;;;;;;;;;;23.18;42.46;101459.56;2116940;28;1953;-55
2022/06/12 00:48:55;;;;;;;;;;;;;;;23.18;42.33;101460.44;2107888;28;806;-55
2022/06/12 00:49:57;;;;;;;;;;;;;;;23.17;42.40;101457.78;2107968;28;807;-55
2022/06/12 00:50:58;;;;;;;;;;;;;;;23.17;41.76;101453.25;2116987;28;763;-55
2022/06/12 00:52:16;;;;;;;;;;;;;;;23.18;42.14;101457.72;2116998;28;964;-55
2022/06/12 00:53:20;;;;;;;;;;;;;;;23.17;42.66;101455.09;2116966;28;881;-55
2022/06/12 00:54:20;;;;;;;;;;;;;;;23.17;41.88;101460.50;2116982;28;814;-55
2022/06/12 00:55:36;;;;;;;;;;;;;;;23.17;42.40;101453.25;2116913;28;965;-55
2022/06/12 00:56:39;;;;;;;;;;;;;;;23.15;42.75;101455.13;2116995;28;751;-55
2022/06/12 00:57:39;;;;;;;;;;;;;;;23.15;42.04;101449.72;2116894;28;799;-55
2022/06/12 00:58:44;;;;;;;;;;;;;;;23.15;42.27;101449.72;2116893;28;869;-55
2022/06/12 00:59:50;;;;;;;;;;;;;;;23.16;42.47;101456.03;2116916;28;782;-55
2022/06/12 01:00:51;;;;;;;;;;;;;;;23.14;42.85;101453.34;2107790;28;896;-55
2022/06/12 01:01:52;;;;;;;;;;;;;;;23.14;42.99;101453.34;2107896;28;961;-55
2022/06/12 01:02:53;;;;;;;;;;;;;;;23.13;42.79;101448.88;2116937;28;838;-55
2022/06/12 01:06:36;;;;;;;;;;;;;;;23.13;41.93;101451.59;2116925;28;675;-55
2022/06/12 01:07:38;;;;;;;;;;;;;;;23.12;42.86;101449.81;2116923;28;826;-55
2022/06/12 01:28:10;;;;;;;;;;;;;;;22.99;43.19;101449.38;2106997;27;1149;-56
2022/06/12 01:29:27;;;;;;;;;;;;;;;22.97;43.36;101439.53;2107044;28;893;-57
2022/06/12 01:30:39;;;;;;;;;;;;;;;22.95;43.35;101443.22;2107003;28;1031;-57
2022/06/12 01:31:48;;;;;;;;;;;;;;;22.94;42.92;101435.13;2107011;28;889;-56
2022/06/12 01:33:07;;;;;;;;;;;;;;;22.95;43.20;101435.09;2106973;28;803;-57
2022/06/12 01:34:22;;;;;;;;;;;;;;;22.94;43.06;101435.13;2106975;28;976;-57
2022/06/12 01:35:32;;;;;;;;;;;;;;;22.94;43.56;101437.84;2106939;28;1016;-57
2022/06/12 01:36:51;;;;;;;;;;;;;;;22.92;42.84;101432.50;2106959;28;897;-57
2022/06/12 01:38:00;;;;;;;;;;;;;;;22.93;43.33;101436.97;2106811;28;953;-57
2022/06/12 01:39:06;;;;;;;;;;;;;;;22.92;42.72;101427.09;2107246;28;1032;-57
2022/06/12 01:40:16;;;;;;;;;;;;;;;22.93;43.31;101431.56;2107191;28;846;-58
2022/06/12 01:41:25;;;;;;;;;;;;;;;22.92;43.58;101432.50;2107154;28;809;-58
2022/06/12 01:42:38;;;;;;;;;;;;;;;22.93;43.53;101433.38;2107146;28;1023;-57
2022/06/12 01:43:38;;;;;;;;;;;;;;;22.93;43.46;101427.97;2107098;28;980;-58
2022/06/12 01:44:48;;;;;;;;;;;;;;;22.91;43.05;101430.72;2107135;28;952;-58
2022/06/12 01:46:00;;;;;;;;;;;;;;;22.92;42.89;101432.50;2107143;28;1060;-58
2022/06/12 01:47:12;;;;;;;;;;;;;;;22.92;42.86;101432.50;2107109;28;1910;-58
2022/06/12 01:48:31;;;;;;;;;;;;;;;22.92;42.75;101426.19;2107143;28;795;-58
2022/06/12 01:49:47;;;;;;;;;;;;;;;22.92;43.57;101427.09;2106456;28;799;-58
2022/06/12 01:50:48;;;;;;;;;;;;;;;22.92;43.15;101429.81;2106701;28;905;-58
2022/06/12 01:51:50;;;;;;;;;;;;;;;22.91;43.03;101428.03;2107128;28;831;-58
2022/06/12 01:53:02;;;;;;;;;;;;;;;22.91;42.97;101436.13;2107070;28;831;-58
2022/06/12 01:54:21;;;;;;;;;;;;;;;22.92;43.00;101434.31;2107105;28;857;-58
2022/06/12 01:55:26;;;;;;;;;;;;;;;22.92;43.51;101429.81;2107096;28;881;-58
2022/06/12 01:56:36;;;;;;;;;;;;;;;22.92;43.24;101429.81;2107086;28;876;-58
2022/06/12 01:57:36;;;;;;;;;;;;;;;22.92;43.45;101428.91;2107060;28;1055;-58
2022/06/12 01:58:46;;;;;;;;;;;;;;;22.91;43.53;101430.72;2106948;28;936;-58
2022/06/12 01:59:55;;;;;;;;;;;;;;;22.91;42.89;101429.84;2106972;28;834;-57
2022/06/12 02:01:02;;;;;;;;;;;;;;;22.92;43.28;101434.31;2107015;28;1020;-58
2022/06/12 02:02:17;;;;;;;;;;;;;;;22.92;42.69;101426.19;2107047;28;814;-57
2022/06/12 02:03:40;;;;;;;;;;;;;;;22.91;42.79;101430.72;2107057;28;1019;-55
2022/06/12 02:04:48;;;;;;;;;;;;;;;22.91;43.03;101429.84;2109246;28;1233;-55
2022/06/12 02:05:54;;;;;;;;;;;;;;;22.91;43.47;101429.84;2106966;28;916;-55
2022/06/12 02:06:58;;;;;;;;;;;;;;;22.91;42.84;101427.13;2107031;28;1526;-55
2022/06/12 02:08:04;;;;;;;;;;;;;;;22.90;43.16;101428.97;2106932;28;1051;-55
2022/06/12 02:09:33;;;;;;;;;;;;;;;22.89;43.48;101423.59;2106928;28;992;-55
2022/06/12 02:10:36;;;;;;;;;;;;;;;22.89;42.80;101427.19;2114372;28;1376;-55
2022/06/12 02:13:14;;;;;;;;;;;;;;;22.90;42.85;101439.78;2114529;28;730;-55
2022/06/12 02:14:18;;;;;;;;;;;;;;;22.88;43.46;101428.13;2114498;28;1386;-55
2022/06/12 02:15:50;;;;;;;;;;;;;;;22.88;43.68;101428.13;2114382;28;1119;-55
2022/06/12 02:16:53;;;;;;;;;;;;;;;22.89;43.10;101429.00;2081140;28;1101;-55
2022/06/12 02:18:01;;;;;;;;;;;;;;;22.88;42.83;101433.53;2081032;28;1848;-55
2022/06/12 02:19:06;;;;;;;;;;;;;;;22.88;43.55;101435.34;2081184;28;992;-55
2022/06/12 02:20:09;;;;;;;;;;;;;;;22.88;43.04;101429.94;2081162;28;985;-55
2022/06/12 02:21:30;;;;;;;;;;;;;;;22.87;42.83;101429.06;2081057;28;1020;-55
2022/06/12 02:22:31;;;;;;;;;;;;;;;22.87;43.65;101433.56;2081164;28;981;-55
2022/06/12 02:23:37;;;;;;;;;;;;;;;22.88;43.78;101428.13;2081107;28;993;-55
2022/06/12 02:24:40;;;;;;;;;;;;;;;22.87;43.04;101426.38;2081134;28;846;-55
2022/06/12 02:25:42;;;;;;;;;;;;;;;22.87;43.67;101426.38;2081058;28;993;-55
2022/06/12 02:26:57;;;;;;;;;;;;;;;22.87;43.76;101428.16;2081066;28;1041;-55
2022/06/12 02:28:03;;;;;;;;;;;;;;;22.87;42.84;101420.97;2080923;28;1345;-55
2022/06/12 02:29:06;;;;;;;;;;;;;;;22.87;43.13;101425.47;2081046;28;1094;-55
2022/06/12 02:30:15;;;;;;;;;;;;;;;22.87;42.72;101422.75;2080911;28;2223;-55
2022/06/12 02:31:28;;;;;;;;;;;;;;;22.87;43.51;101423.66;2080994;28;862;-55
2022/06/12 02:32:36;;;;;;;;;;;;;;;22.86;42.92;101423.69;2081086;28;771;-55
2022/06/12 02:33:38;;;;;;;;;;;;;;;22.87;43.63;101423.66;2081013;28;1051;-55
2022/06/12 02:34:42;;;;;;;;;;;;;;;22.87;43.19;101430.88;2080971;28;854;-55
2022/06/12 02:35:48;;;;;;;;;;;;;;;22.87;43.58;101428.16;2081055;28;955;-55
2022/06/12 02:36:50;;;;;;;;;;;;;;;22.87;43.42;101431.78;2080948;28;1024;-55
2022/06/12 02:37:53;;;;;;;;;;;;;;;22.85;43.90;101430.94;2080669;28;1332;-55
2022/06/12 02:38:57;;;;;;;;;;;;;;;22.85;43.52;101425.53;2077662;28;1056;-55
2022/06/12 02:40:00;;;;;;;;;;;;;;;22.85;43.59;101430.94;2075149;28;1031;-55
2022/06/12 02:41:03;;;;;;;;;;;;;;;22.86;43.41;101431.81;2075126;28;1130;-55
2022/06/12 02:42:18;;;;;;;;;;;;;;;22.85;43.59;101430.94;2075207;28;905;-55
2022/06/12 02:43:20;;;;;;;;;;;;;;;22.85;43.65;101428.25;2075179;28;981;-55
2022/06/12 02:44:23;;;;;;;;;;;;;;;22.85;43.72;101421.94;2075110;28;866;-55
2022/06/12 02:45:25;;;;;;;;;;;;;;;22.85;42.94;101425.53;2075142;28;811;-55
2022/06/12 02:46:52;;;;;;;;;;;;;;;22.85;43.84;101419.22;2075081;28;934;-55
2022/06/12 02:47:52;;;;;;;;;;;;;;;22.84;43.71;101418.38;2068331;28;1914;-55
2022/06/12 02:48:52;;;;;;;;;;;;;;;22.84;43.29;101421.06;2067013;28;870;-55
2022/06/12 02:49:54;;;;;;;;;;;;;;;22.84;43.77;101415.66;2067020;28;1028;-55
2022/06/12 02:51:05;;;;;;;;;;;;;;;22.84;43.72;101415.66;2067049;28;905;-55
2022/06/12 02:52:19;;;;;;;;;;;;;;;22.84;43.23;101418.38;2067058;28;1048;-55
2022/06/12 02:53:39;;;;;;;;;;;;;;;22.84;43.34;101414.78;2084290;28;1074;-55
2022/06/12 02:54:56;;;;;;;;;;;;;;;22.83;43.27;101422.00;2092410;28;1269;-55
2022/06/12 02:56:00;;;;;;;;;;;;;;;22.83;42.92;101411.19;2092540;28;857;-55
2022/06/12 02:57:06;;;;;;;;;;;;;;;22.84;43.62;101412.06;2092446;28;854;-55
2022/06/12 02:58:13;;;;;;;;;;;;;;;22.82;43.77;101404.03;2092477;28;1040;-55
2022/06/12 02:59:16;;;;;;;;;;;;;;;22.83;43.81;101405.78;2092561;28;842;-55
2022/06/12 03:00:29;;;;;;;;;;;;;;;22.83;43.17;101410.31;2092406;28;913;-55
2022/06/12 03:01:32;;;;;;;;;;;;;;;22.83;43.87;101413.91;2092377;28;849;-55
2022/06/12 03:02:34;;;;;;;;;;;;;;;22.83;42.96;101413.00;2092375;28;1246;-55
2022/06/12 03:03:43;;;;;;;;;;;;;;;22.84;43.22;101412.06;2092421;28;779;-55
2022/06/12 03:04:52;;;;;;;;;;;;;;;22.84;42.93;101412.06;2092436;28;850;-55
2022/06/12 03:05:57;;;;;;;;;;;;;;;22.82;43.35;101414.84;2092428;28;945;-55
2022/06/12 03:06:57;;;;;;;;;;;;;;;22.83;42.99;101416.59;2092504;28;814;-56
2022/06/12 03:08:00;;;;;;;;;;;;;;;22.82;43.71;101414.84;2092253;28;1889;-55
2022/06/12 03:09:02;;;;;;;;;;;;;;;22.82;43.82;101408.53;2092375;28;795;-55
2022/06/12 03:10:06;;;;;;;;;;;;;;;22.82;43.77;101413.94;2092323;28;886;-55
2022/06/12 03:11:09;;;;;;;;;;;;;;;22.80;43.28;101412.16;2092272;28;977;-55
2022/06/12 03:12:10;;;;;;;;;;;;;;;22.80;43.64;101406.75;2092252;28;1876;-55
2022/06/12 03:13:10;;;;;;;;;;;;;;;22.82;43.79;101411.22;2092311;28;977;-55
2022/06/12 03:14:13;;;;;;;;;;;;;;;22.80;43.67;101411.31;2092311;28;1028;-55
2022/06/12 03:15:32;;;;;;;;;;;;;;;22.80;43.65;101411.31;2092277;28;1008;-55
2022/06/12 03:16:34;;;;;;;;;;;;;;;22.81;43.82;101415.78;2092333;28;862;-55
2022/06/12 03:17:35;;;;;;;;;;;;;;;22.80;43.47;101411.31;2092300;28;813;-55
2022/06/12 03:18:40;;;;;;;;;;;;;;;22.80;43.59;101419.41;2092376;28;949;-55
2022/06/12 03:19:45;;;;;;;;;;;;;;;22.79;43.31;101412.25;2092298;28;902;-55
2022/06/12 03:20:54;;;;;;;;;;;;;;;22.79;43.07;101414.94;2092291;28;786;-55
2022/06/12 03:22:01;;;;;;;;;;;;;;;22.79;43.76;101414.94;2092304;28;764;-55
2022/06/12 03:23:05;;;;;;;;;;;;;;;22.80;43.63;101422.09;2092225;28;851;-55
2022/06/12 03:24:22;;;;;;;;;;;;;;;22.78;43.53;101419.44;2092358;28;836;-55
2022/06/12 03:25:25;;;;;;;;;;;;;;;22.78;43.63;101414.03;2092258;28;853;-55
2022/06/12 03:26:32;;;;;;;;;;;;;;;22.78;43.10;101414.03;2092230;28;802;-55
2022/06/12 03:27:51;;;;;;;;;;;;;;;22.78;43.08;101422.13;2096763;28;1979;-55
2022/06/12 03:28:57;;;;;;;;;;;;;;;22.77;43.80;101417.66;2100508;28;869;-55
2022/06/12 03:30:14;;;;;;;;;;;;;;;22.77;43.45;101417.66;2100561;28;775;-55
2022/06/12 03:31:18;;;;;;;;;;;;;;;22.77;43.97;101412.28;2100598;28;854;-55
2022/06/12 03:32:29;;;;;;;;;;;;;;;22.77;43.96;101414.97;2100405;28;996;-55
2022/06/12 03:33:39;;;;;;;;;;;;;;;22.77;43.09;101420.38;2100455;28;831;-55
2022/06/12 03:34:48;;;;;;;;;;;;;;;22.76;43.84;101418.59;2100399;28;1028;-55
2022/06/12 03:35:54;;;;;;;;;;;;;;;22.77;43.16;101420.38;2100544;28;850;-55
2022/06/12 03:37:03;;;;;;;;;;;;;;;22.76;43.84;101415.03;2100438;28;869;-55
2022/06/12 03:38:11;;;;;;;;;;;;;;;22.76;43.45;101415.03;2100460;28;1122;-55
2022/06/12 03:39:14;;;;;;;;;;;;;;;22.76;43.69;101415.03;2100390;28;750;-55
2022/06/12 03:40:20;;;;;;;;;;;;;;;22.77;43.53;101423.06;2100398;28;767;-55
2022/06/12 03:41:25;;;;;;;;;;;;;;;22.76;43.91;101417.75;2100522;28;899;-55
2022/06/12 03:42:32;;;;;;;;;;;;;;;22.75;44.10;101415.97;2100269;28;1913;-55
2022/06/12 03:43:40;;;;;;;;;;;;;;;22.75;43.47;101419.53;2100416;28;893;-55
2022/06/12 03:44:49;;;;;;;;;;;;;;;22.76;43.74;101409.63;2100371;28;988;-55
2022/06/12 03:45:54;;;;;;;;;;;;;;;22.75;44.14;101413.28;2100362;28;976;-55
2022/06/12 03:46:54;;;;;;;;;;;;;;;22.75;43.36;101408.75;2100285;28;862;-55
2022/06/12 03:48:00;;;;;;;;;;;;;;;22.74;43.40;101411.50;2100349;28;1933;-55
2022/06/12 03:49:23;;;;;;;;;;;;;;;22.74;44.05;101406.97;2100336;28;1020;-55
2022/06/12 03:50:29;;;;;;;;;;;;;;;22.75;43.22;101407.88;2091548;28;1188;-55
2022/06/12 03:51:34;;;;;;;;;;;;;;;22.74;43.61;101409.66;2099876;28;976;-55
2022/06/12 03:52:53;;;;;;;;;;;;;;;22.74;43.27;101406.09;2100267;28;905;-55
2022/06/12 03:53:57;;;;;;;;;;;;;;;22.74;43.36;101412.38;2100281;28;1040;-55
2022/06/12 03:55:12;;;;;;;;;;;;;;;22.74;44.11;101416.91;2100259;28;976;-55
2022/06/12 03:57:52;;;;;;;;;;;;;;;22.74;43.29;101406.09;2100316;28;636;-56
2022/06/12 03:58:59;;;;;;;;;;;;;;;22.74;43.72;101411.50;2100254;28;841;-55
2022/06/12 04:00:06;;;;;;;;;;;;;;;22.74;44.00;101408.81;2100280;28;865;-55
2022/06/12 04:01:07;;;;;;;;;;;;;;;22.74;43.90;101412.38;2100240;28;968;-55
2022/06/12 04:02:08;;;;;;;;;;;;;;;23.04;42.91;101411.38;2091264;28;1663;-55
2022/06/12 04:03:09;;;;;;;;;;;;;;;24.11;40.66;101403.00;2091516;28;864;-55
2022/06/12 04:04:09;;;;;;;;;;;;;;;24.83;38.97;101410.94;2100159;28;909;-54
2022/06/12 04:05:14;;;;;;;;;;;;;;;25.32;37.60;101399.78;2100206;28;853;-55
2022/06/12 04:06:17;;;;;;;;;;;;;;;25.61;36.79;101392.19;2100410;28;751;-54
2022/06/12 04:07:18;;;;;;;;;;;;;;;25.86;36.48;101402.78;2100102;28;1893;-53
2022/06/12 04:08:21;;;;;;;;;;;;;;;26.22;35.56;101403.78;2100138;28;794;-53
2022/06/12 04:09:24;;;;;;;;;;;;;;;26.33;35.60;101401.44;2100161;28;980;-52
2022/06/12 04:10:30;;;;;;;;;;;;;;;26.62;34.98;101400.94;2100156;28;814;-54
2022/06/12 04:11:33;;;;;;;;;;;;;;;26.75;34.63;101398.50;2100186;28;787;-54
2022/06/12 04:12:34;;;;;;;;;;;;;;;26.98;34.09;101400.06;2100158;28;1098;-54
2022/06/12 04:13:38;;;;;;;;;;;;;;;27.04;33.99;101404.28;2100107;28;1027;-54
2022/06/12 04:14:45;;;;;;;;;;;;;;;27.19;33.47;101399.88;2100123;28;1052;-54
2022/06/12 04:15:49;;;;;;;;;;;;;;;27.48;33.06;101405.63;2100116;28;1051;-54
2022/06/12 04:16:52;;;;;;;;;;;;;;;27.55;33.21;101401.63;2100082;28;913;-55
2022/06/12 04:17:55;;;;;;;;;;;;;;;27.70;32.53;101399.88;2100080;28;787;-54
2022/06/12 04:18:55;;;;;;;;;;;;;;;27.87;32.51;101404.38;2100108;28;806;-54
2022/06/12 04:20:05;;;;;;;;;;;;;;;27.90;32.62;101404.22;2100043;28;774;-54
2022/06/12 04:21:33;;;;;;;;;;;;;;;28.05;31.94;101397.03;2100063;28;806;-54
2022/06/12 04:22:51;;;;;;;;;;;;;;;28.24;32.23;101399.63;2074263;28;1219;-55
2022/06/12 04:24:04;;;;;;;;;;;;;;;28.62;31.04;101406.50;2074432;28;969;-55
2022/06/12 04:25:12;;;;;;;;;;;;;;;28.55;31.30;101403.28;2074422;28;842;-54
2022/06/12 04:26:30;;;;;;;;;;;;;;;28.58;31.42;101399.47;2074406;28;988;-54
2022/06/12 04:27:33;;;;;;;;;;;;;;;28.78;30.91;101401.06;2074149;28;1910;-54
2022/06/12 04:28:36;;;;;;;;;;;;;;;28.67;31.38;101403.53;2074395;28;1012;-54
2022/06/12 04:29:38;;;;;;;;;;;;;;;28.89;31.04;101404.97;2074365;28;819;-54
2022/06/12 04:30:38;;;;;;;;;;;;;;;29.19;30.68;101401.38;2074275;28;1903;-54
2022/06/12 04:31:40;;;;;;;;;;;;;;;29.59;30.32;101398.88;2074331;28;889;-54
2022/06/12 04:32:40;;;;;;;;;;;;;;;30.16;28.91;101397.09;2074505;28;877;-55
2022/06/12 04:33:59;;;;;;;;;;;;;;;30.37;28.64;101399.38;2074290;28;811;-54
2022/06/12 04:35:00;;;;;;;;;;;;;;;30.62;28.26;101406.84;2074330;28;803;-55
2022/06/12 04:36:01;;;;;;;;;;;;;;;30.89;27.76;101397.75;2074293;28;853;-54
2022/06/12 04:37:03;;;;;;;;;;;;;;;30.85;27.99;101401.66;2074169;28;1233;-54
2022/06/12 04:38:03;;;;;;;;;;;;;;;30.96;27.62;101396.31;2074250;28;1153;-54
2022/06/12 04:39:04;;;;;;;;;;;;;;;30.96;27.63;101400.91;2074291;28;1036;-54
2022/06/12 04:40:05;;;;;;;;;;;;;;;31.09;27.77;101400.94;2074286;28;973;-54
2022/06/12 04:41:06;;;;;;;;;;;;;;;31.08;27.50;101399.16;2073957;28;1187;-55
2022/06/12 04:42:07;;;;;;;;;;;;;;;31.18;27.12;101394.84;2074255;28;904;-54
2022/06/12 04:43:07;;;;;;;;;;;;;;;31.44;26.74;101394.84;2074266;28;1129;-54
2022/06/12 04:44:08;;;;;;;;;;;;;;;31.48;26.56;101394.53;2074251;28;779;-54
2022/06/12 04:45:08;;;;;;;;;;;;;;;31.61;26.57;101390.91;2074280;28;826;-54
2022/06/12 04:46:09;;;;;;;;;;;;;;;31.70;26.71;101394.81;2074239;28;970;-54
2022/06/12 04:47:14;;;;;;;;;;;;;;;31.75;26.36;101393.56;2074087;28;1898;-55
2022/06/12 04:48:19;;;;;;;;;;;;;;;31.43;26.62;101393.09;2074252;28;875;-54
2022/06/12 04:49:21;;;;;;;;;;;;;;;31.40;26.50;101388.72;2074287;28;787;-54
2022/06/12 04:50:22;;;;;;;;;;;;;;;31.52;26.82;101397.03;2074230;28;981;-54
2022/06/12 04:51:22;;;;;;;;;;;;;;;31.82;26.01;101383.00;2074181;28;827;-54
2022/06/12 04:52:23;;;;;;;;;;;;;;;31.78;26.07;101378.75;2074225;28;1036;-54
2022/06/12 04:53:23;;;;;;;;;;;;;;;31.55;26.82;101391.34;2074154;28;1025;-54
2022/06/12 04:54:24;;;;;;;;;;;;;;;31.69;26.11;101380.28;2074156;28;969;-55
2022/06/12 04:55:24;;;;;;;;;;;;;;;31.94;25.74;101392.16;2074205;28;815;-54
2022/06/12 04:56:26;;;;;;;;;;;;;;;31.99;25.68;101383.63;2074179;28;989;-54
2022/06/12 04:57:26;;;;;;;;;;;;;;;32.04;25.59;101387.75;2074170;28;965;-55
2022/06/12 04:58:26;;;;;;;;;;;;;;;31.69;26.03;101391.22;2074310;28;824;-54
2022/06/12 04:59:27;;;;;;;;;;;;;;;32.01;25.62;101384.41;2074155;28;870;-54
2022/06/12 05:00:27;;;;;;;;;;;;;;;32.23;25.26;101384.50;2097503;28;1082;-55
2022/06/12 05:01:28;;;;;;;;;;;;;;;32.18;25.12;101383.13;2099784;28;968;-54
2022/06/12 05:02:28;;;;;;;;;;;;;;;32.38;25.08;101382.50;2099575;28;818;-54
2022/06/12 05:03:29;;;;;;;;;;;;;;;32.20;25.51;101382.00;2099757;28;1090;-54
2022/06/12 05:04:29;;;;;;;;;;;;;;;32.11;25.26;101379.94;2099771;28;865;-54
2022/06/12 05:05:30;;;;;;;;;;;;;;;32.18;25.45;101386.72;2099786;28;765;-54
2022/06/12 05:06:30;;;;;;;;;;;;;;;32.26;25.17;101383.44;2099722;28;925;-54
2022/06/12 05:07:30;;;;;;;;;;;;;;;32.06;25.65;101377.56;2099648;28;1953;-55
2022/06/12 05:08:31;;;;;;;;;;;;;;;32.33;25.24;101375.63;2099733;28;977;-55
2022/06/12 05:09:33;;;;;;;;;;;;;;;32.35;24.97;101384.63;2090822;28;666;-55
2022/06/12 05:10:33;;;;;;;;;;;;;;;32.18;25.20;101375.75;2090918;28;1008;-55
2022/06/12 05:11:34;;;;;;;;;;;;;;;32.17;25.16;101384.97;2099731;28;988;-55
2022/06/12 05:12:34;;;;;;;;;;;;;;;32.40;24.84;101370.53;2099726;28;862;-55
2022/06/12 05:13:34;;;;;;;;;;;;;;;32.37;25.03;101377.16;2099710;28;973;-55
2022/06/12 05:14:34;;;;;;;;;;;;;;;32.53;24.55;101379.59;2099743;28;783;-55
2022/06/12 05:15:35;;;;;;;;;;;;;;;32.47;24.82;101371.84;2099754;28;889;-55
2022/06/12 05:16:36;;;;;;;;;;;;;;;32.30;25.24;101370.38;2099742;28;969;-55
2022/06/12 05:17:36;;;;;;;;;;;;;;;32.48;24.75;101374.47;2099724;28;810;-55
2022/06/12 05:18:37;;;;;;;;;;;;;;;32.22;25.25;101374.53;2099715;28;917;-55
2022/06/12 05:19:39;;;;;;;;;;;;;;;32.03;25.60;101369.56;2099696;28;1161;-55
2022/06/12 05:20:40;;;;;;;;;;;;;;;32.30;25.19;101381.34;2099596;28;1918;-55
2022/06/12 05:21:40;;;;;;;;;;;;;;;32.35;24.90;101369.06;2099703;28;783;-55
2022/06/12 05:22:40;;;;;;;;;;;;;;;32.21;25.43;101375.53;2099682;28;961;-55
2022/06/12 05:23:40;;;;;;;;;;;;;;;32.31;25.10;101367.53;2099673;28;808;-55
2022/06/12 05:24:41;;;;;;;;;;;;;;;32.50;24.75;101377.09;2099686;28;842;-55
2022/06/12 05:25:42;;;;;;;;;;;;;;;32.47;24.87;101375.47;2099675;28;832;-55
2022/06/12 05:26:45;;;;;;;;;;;;;;;32.36;24.85;101379.03;2099675;28;760;-56
2022/06/12 05:27:46;;;;;;;;;;;;;;;32.38;24.91;101374.28;2099462;28;1914;-55
2022/06/12 05:28:47;;;;;;;;;;;;;;;32.30;25.23;101375.88;2090737;28;1789;-55
2022/06/12 05:29:47;;;;;;;;;;;;;;;32.17;25.39;101374.00;2090767;28;977;-55
2022/06/12 05:30:47;;;;;;;;;;;;;;;32.32;25.11;101374.78;2099671;28;818;-55
2022/06/12 05:31:47;;;;;;;;;;;;;;;32.26;25.18;101374.31;2099670;28;771;-55
2022/06/12 05:32:50;;;;;;;;;;;;;;;32.46;25.06;101370.09;2099659;28;853;-55
2022/06/12 05:33:50;;;;;;;;;;;;;;;32.48;25.06;101366.25;2099636;28;795;-55
2022/06/12 05:34:51;;;;;;;;;;;;;;;32.61;24.57;101374.41;2099629;28;968;-55
2022/06/12 05:35:51;;;;;;;;;;;;;;;32.57;24.83;101374.75;2099635;28;1024;-56
2022/06/12 05:36:52;;;;;;;;;;;;;;;32.48;24.99;101366.25;2099674;28;854;-55
2022/06/12 05:37:52;;;;;;;;;;;;;;;32.35;25.20;101363.59;2099648;28;878;-55
2022/06/12 05:38:53;;;;;;;;;;;;;;;32.50;24.97;101371.59;2099628;28;779;-55
2022/06/12 05:39:53;;;;;;;;;;;;;;;32.61;24.51;101377.13;2099593;28;997;-56
2022/06/12 05:40:53;;;;;;;;;;;;;;;32.65;24.49;101375.06;2099621;28;771;-55
2022/06/12 05:41:53;;;;;;;;;;;;;;;32.87;24.20;101378.88;2099619;28;838;-55
2022/06/12 05:42:53;;;;;;;;;;;;;;;32.59;24.65;101370.91;2099641;28;917;-55
2022/06/12 05:43:53;;;;;;;;;;;;;;;32.44;24.80;101370.22;2099717;28;866;-55
2022/06/12 05:44:54;;;;;;;;;;;;;;;32.20;25.06;101372.94;2099574;28;1024;-55
2022/06/12 05:45:55;;;;;;;;;;;;;;;32.51;24.61;101365.13;2099620;28;748;-55
2022/06/12 05:46:57;;;;;;;;;;;;;;;32.62;24.40;101369.81;2099624;28;822;-55
2022/06/12 05:47:58;;;;;;;;;;;;;;;32.63;24.82;101371.56;2099510;28;1890;-55
2022/06/12 05:48:58;;;;;;;;;;;;;;;32.48;24.76;101370.84;2099629;28;850;-55
2022/06/12 05:49:59;;;;;;;;;;;;;;;32.56;24.76;101371.13;2099710;28;1008;-55
2022/06/12 05:51:00;;;;;;;;;;;;;;;32.43;24.66;101373.06;2099602;28;778;-55
2022/06/12 05:52:00;;;;;;;;;;;;;;;32.45;24.77;101363.75;2099538;28;1000;-56
2022/06/12 05:53:01;;;;;;;;;;;;;;;32.66;24.44;101371.31;2099565;28;766;-55
2022/06/12 05:54:01;;;;;;;;;;;;;;;32.81;24.34;101377.47;2099572;28;897;-56
2022/06/12 05:55:02;;;;;;;;;;;;;;;32.83;24.34;101372.75;2099524;28;1059;-55
2022/06/12 05:56:06;;;;;;;;;;;;;;;32.70;24.51;101371.94;2099520;28;1000;-55
2022/06/12 05:57:06;;;;;;;;;;;;;;;32.55;25.07;101372.13;2099502;28;771;-55
2022/06/12 05:58:07;;;;;;;;;;;;;;;32.78;24.52;101372.22;2099528;28;984;-55
2022/06/12 05:59:07;;;;;;;;;;;;;;;32.59;24.70;101376.38;2099475;28;988;-55
2022/06/12 06:00:10;;;;;;;;;;;;;;;32.80;24.34;101379.31;2099543;28;862;-55
2022/06/12 06:01:11;;;;;;;;;;;;;;;32.40;25.03;101373.28;2099506;28;1094;-55
2022/06/12 06:02:11;;;;;;;;;;;;;;;32.68;24.76;101378.41;2099532;28;939;-55
2022/06/12 06:03:12;;;;;;;;;;;;;;;32.99;24.10;101379.78;2099575;28;952;-55
2022/06/12 06:04:12;;;;;;;;;;;;;;;32.73;24.54;101368.97;2099560;28;862;-55